createdAt,value
2022-10-11T00:00:49.641Z,8.36
2022-10-11T00:03:17.966Z,8.28
2022-10-11T00:05:45.757Z,8.19
2022-10-11T00:08:18.398Z,8.14
2022-10-11T00:10:46.207Z,8.11
2022-10-11T00:13:14.055Z,8.06
2022-10-11T00:15:41.874Z,8.03
2022-10-11T00:18:09.750Z,7.99
2022-10-11T00:20:37.787Z,7.95
2022-10-11T00:23:05.526Z,7.93
2022-10-11T00:25:34.941Z,7.89
2022-10-11T00:28:03.009Z,7.86
2022-10-11T00:30:30.821Z,7.83
2022-10-11T00:32:58.870Z,7.79
2022-10-11T00:35:27.216Z,7.75
2022-10-11T00:37:57.693Z,7.73
2022-10-11T00:40:25.511Z,7.71
2022-10-11T00:42:55.053Z,7.65
2022-10-11T00:45:59.772Z,7.62
2022-10-11T00:48:32.240Z,7.59
2022-10-11T00:51:03.361Z,7.56
2022-10-11T00:53:33.495Z,7.51
2022-10-11T00:56:08.951Z,7.47
2022-10-11T00:58:39.678Z,7.43
2022-10-11T01:01:09.320Z,7.38
2022-10-11T01:03:41.717Z,7.32
2022-10-11T01:06:10.333Z,7.27
2022-10-11T01:08:39.746Z,7.20
2022-10-11T01:11:07.951Z,7.16
2022-10-11T01:13:51.543Z,7.12
2022-10-11T01:16:28.601Z,7.07
2022-10-11T01:19:12.886Z,7.03
2022-10-11T01:21:48.904Z,6.96
2022-10-11T01:24:32.328Z,6.91
2022-10-11T01:27:31.836Z,6.83
2022-10-11T01:30:17.304Z,6.78
2022-10-11T01:32:51.920Z,6.73
2022-10-11T01:35:27.645Z,6.70
2022-10-11T01:38:00.696Z,6.67
2022-10-11T01:40:35.915Z,6.64
2022-10-11T01:43:05.665Z,6.61
2022-10-11T01:45:36.819Z,6.57
2022-10-11T01:48:07.081Z,6.57
2022-10-11T01:50:40.245Z,6.55
2022-10-11T01:53:41.450Z,6.52
2022-10-11T01:56:23.102Z,6.50
2022-10-11T01:59:12.833Z,6.47
2022-10-11T02:01:53.270Z,6.44
2022-10-11T02:04:29.984Z,6.42
2022-10-11T02:07:00.511Z,6.42
2022-10-11T02:09:35.180Z,6.41
2022-10-11T02:12:07.583Z,6.39
2022-10-11T02:14:39.996Z,6.40
2022-10-11T02:17:13.993Z,6.38
2022-10-11T02:19:45.685Z,6.38
2022-10-11T02:22:18.597Z,6.38
2022-10-11T02:24:49.560Z,6.37
2022-10-11T02:27:22.769Z,6.37
2022-10-11T02:29:54.676Z,6.38
2022-10-11T02:32:26.601Z,6.39
2022-10-11T02:34:56.712Z,6.38
2022-10-11T02:37:31.546Z,6.37
2022-10-11T02:40:06.459Z,6.36
2022-10-11T02:42:40.013Z,6.32
2022-10-11T02:45:14.342Z,6.30
2022-10-11T02:47:44.805Z,6.31
2022-10-11T02:50:13.627Z,6.31
2022-10-11T02:52:41.705Z,6.31
2022-10-11T02:55:10.820Z,6.29
2022-10-11T02:57:39.579Z,6.26
2022-10-11T03:00:09.071Z,6.25
2022-10-11T03:02:36.975Z,6.24
2022-10-11T03:05:07.554Z,6.19
2022-10-11T03:07:35.327Z,6.16
2022-10-11T03:10:03.202Z,6.16
2022-10-11T03:12:31.018Z,6.14
2022-10-11T03:14:58.855Z,6.13
2022-10-11T03:17:41.782Z,6.12
2022-10-11T03:20:12.151Z,6.09
2022-10-11T03:22:40.837Z,6.07
2022-10-11T03:25:09.334Z,6.05
2022-10-11T03:27:37.123Z,6.03
2022-10-11T03:30:06.500Z,5.99
2022-10-11T03:32:34.238Z,5.98
2022-10-11T03:35:03.280Z,5.94
2022-10-11T03:37:32.465Z,5.92
2022-10-11T03:40:01.365Z,5.87
2022-10-11T03:42:29.386Z,5.83
2022-10-11T03:44:57.207Z,5.79
2022-10-11T03:47:25.003Z,5.76
2022-10-11T03:49:52.973Z,5.73
2022-10-11T03:52:20.747Z,5.69
2022-10-11T03:54:49.979Z,5.65
2022-10-11T03:57:17.701Z,5.65
2022-10-11T03:59:46.969Z,5.61
2022-10-11T04:02:14.968Z,5.58
2022-10-11T04:04:42.798Z,5.53
2022-10-11T04:07:10.777Z,5.50
2022-10-11T04:09:38.650Z,5.49
2022-10-11T04:12:08.407Z,5.48
2022-10-11T04:14:36.231Z,5.45
2022-10-11T04:17:04.082Z,5.44
2022-10-11T04:19:31.812Z,5.38
2022-10-11T04:21:59.630Z,5.34
2022-10-11T04:24:27.472Z,5.34
2022-10-11T04:26:55.360Z,5.34
2022-10-11T04:29:27.726Z,5.34
2022-10-11T04:31:59.374Z,5.33
2022-10-11T04:34:27.161Z,5.33
2022-10-11T04:36:55.074Z,5.37
2022-10-11T04:39:22.870Z,5.38
2022-10-11T04:41:50.750Z,5.40
2022-10-11T04:44:18.566Z,5.42
2022-10-11T04:46:47.840Z,5.44
2022-10-11T04:49:15.643Z,5.47
2022-10-11T04:51:43.446Z,5.49
2022-10-11T04:54:11.295Z,5.54
2022-10-11T04:56:39.027Z,5.57
2022-10-11T04:59:06.980Z,5.60
2022-10-11T05:01:34.936Z,5.65
2022-10-11T05:04:04.771Z,5.68
2022-10-11T05:06:32.820Z,5.72
2022-10-11T05:09:01.238Z,5.74
2022-10-11T05:11:29.337Z,5.78
2022-10-11T05:13:57.513Z,5.80
2022-10-11T05:16:25.371Z,5.84
2022-10-11T05:18:53.249Z,5.86
2022-10-11T05:21:24.828Z,5.90
2022-10-11T05:23:55.751Z,5.92
2022-10-11T05:26:24.026Z,5.95
2022-10-11T05:28:52.377Z,5.99
2022-10-11T05:31:20.487Z,6.02
2022-10-11T05:33:48.635Z,6.06
2022-10-11T05:36:16.721Z,6.08
2022-10-11T05:38:46.047Z,6.12
2022-10-11T05:41:15.936Z,6.16
2022-10-11T05:43:46.323Z,6.19
2022-10-11T05:46:14.301Z,6.20
2022-10-11T05:48:42.106Z,6.19
2022-10-11T05:51:10.904Z,6.18
2022-10-11T05:53:39.419Z,6.20
2022-10-11T05:56:19.036Z,6.22
2022-10-11T05:58:47.002Z,6.23
2022-10-11T06:01:19.811Z,6.24
2022-10-11T06:03:47.802Z,6.25
2022-10-11T06:06:15.712Z,6.26
2022-10-11T06:08:44.301Z,6.27
2022-10-11T06:11:16.463Z,6.26
2022-10-11T06:13:44.868Z,6.28
2022-10-11T06:16:13.465Z,6.29
2022-10-11T06:18:41.589Z,6.31
2022-10-11T06:21:09.407Z,6.32
2022-10-11T06:23:37.237Z,6.34
2022-10-11T06:26:08.543Z,6.34
2022-10-11T06:28:38.933Z,6.33
2022-10-11T06:31:07.806Z,6.35
2022-10-11T06:33:37.744Z,6.37
2022-10-11T06:36:08.391Z,6.40
2022-10-11T06:38:41.003Z,6.46
2022-10-11T06:41:13.743Z,6.51
2022-10-11T06:43:43.174Z,6.57
2022-10-11T06:46:11.524Z,6.64
2022-10-11T06:48:40.992Z,6.71
2022-10-11T06:51:08.860Z,6.78
2022-10-11T06:56:30.803Z,6.89
2022-10-11T06:59:00.964Z,6.95
2022-10-11T07:01:28.915Z,6.97
2022-10-11T07:03:58.706Z,7.00
2022-10-11T07:06:28.837Z,7.06
2022-10-11T07:08:57.439Z,7.12
2022-10-11T07:11:27.259Z,7.18
2022-10-11T07:13:56.856Z,7.24
2022-10-11T07:16:26.599Z,7.31
2022-10-11T07:19:00.133Z,7.34
2022-10-11T07:21:29.940Z,7.37
2022-10-11T07:24:03.532Z,7.41
2022-10-11T07:26:38.151Z,7.47
2022-10-11T07:29:09.433Z,7.56
2022-10-11T07:31:41.442Z,7.67
2022-10-11T07:34:09.373Z,7.74
2022-10-11T07:36:37.631Z,7.81
2022-10-11T07:39:07.464Z,7.88
2022-10-11T07:41:35.518Z,7.95
2022-10-11T07:44:03.615Z,8.02
2022-10-11T07:46:31.817Z,8.08
2022-10-11T07:49:01.008Z,8.12
2022-10-11T07:51:28.824Z,8.19
2022-10-11T07:53:58.236Z,8.22
2022-10-11T07:56:27.835Z,8.26
2022-10-11T07:58:57.747Z,8.31
2022-10-11T08:01:26.747Z,8.35
2022-10-11T08:03:56.747Z,8.41
2022-10-11T08:06:31.566Z,8.46
2022-10-11T08:09:01.004Z,8.50
2022-10-11T08:11:31.278Z,8.55
2022-10-11T08:14:00.678Z,8.60
2022-10-11T08:16:28.543Z,8.63
2022-10-11T08:18:57.063Z,8.66
2022-10-11T08:21:26.848Z,8.70
2022-10-11T08:23:54.741Z,8.76
2022-10-11T08:26:23.128Z,8.79
2022-10-11T08:28:51.119Z,8.84
2022-10-11T08:31:18.931Z,8.95
2022-10-11T08:33:46.783Z,9.00
2022-10-11T08:36:14.617Z,9.06
2022-10-11T08:38:43.836Z,9.13
2022-10-11T08:41:38.001Z,9.22
2022-10-11T08:44:18.517Z,9.29
2022-10-11T08:46:51.717Z,9.34
2022-10-11T08:49:27.760Z,9.38
2022-10-11T08:52:02.513Z,9.44
2022-10-11T08:54:38.976Z,9.49
2022-10-11T08:57:08.071Z,9.53
2022-10-11T08:59:42.798Z,9.55
2022-10-11T09:02:22.693Z,9.64
2022-10-11T09:04:55.061Z,9.74
2022-10-11T09:07:36.633Z,9.82
2022-10-11T09:10:36.864Z,9.93
2022-10-11T09:13:18.454Z,10.04
2022-10-11T09:15:55.274Z,10.10
2022-10-11T09:18:42.707Z,10.15
2022-10-11T09:21:20.761Z,10.18
2022-10-11T09:24:07.820Z,10.20
2022-10-11T09:26:43.829Z,10.23
2022-10-11T09:29:18.725Z,10.22
2022-10-11T09:31:49.901Z,10.21
2022-10-11T09:34:17.768Z,10.22
2022-10-11T09:36:54.200Z,10.26
2022-10-11T09:39:31.177Z,10.29
2022-10-11T09:42:02.720Z,10.30
2022-10-11T09:44:33.881Z,10.34
2022-10-11T09:47:02.042Z,10.39
2022-10-11T09:49:34.961Z,10.43
2022-10-11T09:52:05.104Z,10.46
2022-10-11T09:54:42.608Z,10.51
2022-10-11T09:57:22.016Z,10.56
2022-10-11T10:00:02.829Z,10.58
2022-10-11T10:02:44.969Z,10.58
2022-10-11T10:05:19.333Z,10.58
2022-10-11T10:08:04.243Z,10.63
2022-10-11T10:10:38.606Z,10.71
2022-10-11T10:13:22.779Z,10.82
2022-10-11T10:15:53.555Z,10.90
2022-10-11T10:18:25.257Z,10.96
2022-10-11T10:20:54.921Z,11.06
2022-10-11T10:23:25.649Z,11.16
2022-10-11T10:26:09.807Z,11.30
2022-10-11T10:28:39.413Z,11.44
2022-10-11T10:31:22.383Z,11.57
2022-10-11T10:33:53.398Z,11.68
2022-10-11T10:36:25.303Z,11.79
2022-10-11T10:39:01.040Z,11.88
2022-10-11T10:41:29.693Z,11.92
2022-10-11T10:44:01.199Z,11.95
2022-10-11T10:46:42.885Z,11.97
2022-10-11T10:52:29.740Z,11.99
2022-10-11T10:55:05.343Z,12.00
2022-10-11T10:57:41.929Z,12.01
2022-10-11T11:00:19.153Z,12.05
2022-10-11T11:02:54.754Z,12.14
2022-10-11T11:05:33.841Z,12.20
2022-10-11T11:08:13.215Z,12.22
2022-10-11T11:10:52.437Z,12.28
2022-10-11T11:13:29.645Z,12.29
2022-10-11T11:16:07.236Z,12.27
2022-10-11T11:18:43.455Z,12.27
2022-10-11T11:21:39.100Z,12.32
2022-10-11T11:24:18.075Z,12.29
2022-10-11T11:26:52.954Z,12.26
2022-10-11T11:29:41.139Z,12.27
2022-10-11T11:32:29.531Z,12.26
2022-10-11T11:35:02.249Z,12.29
2022-10-11T11:37:35.380Z,12.31
2022-10-11T11:40:15.420Z,12.32
2022-10-11T11:42:47.284Z,12.38
2022-10-11T11:45:20.467Z,12.48
2022-10-11T11:47:55.959Z,12.66
2022-10-11T11:50:28.552Z,12.82
2022-10-11T11:53:04.646Z,12.95
2022-10-11T11:55:39.890Z,13.06
2022-10-11T11:58:18.584Z,13.20
2022-10-11T12:00:57.741Z,13.34
2022-10-11T12:03:37.987Z,13.43
2022-10-11T12:06:29.562Z,13.54
2022-10-11T12:09:04.165Z,13.60
2022-10-11T12:11:43.144Z,13.67
2022-10-11T12:14:27.521Z,13.75
2022-10-11T12:17:19.515Z,13.76
2022-10-11T12:20:14.460Z,13.85
2022-10-11T12:22:55.482Z,13.91
2022-10-11T12:25:44.931Z,14.02
2022-10-11T12:29:01.622Z,14.20
2022-10-11T12:31:31.541Z,14.33
2022-10-11T12:34:21.811Z,14.41
2022-10-11T12:36:51.932Z,14.40
2022-10-11T12:39:52.789Z,14.43
2022-10-11T12:42:28.109Z,14.46
2022-10-11T12:45:32.192Z,14.52
2022-10-11T12:48:38.512Z,14.61
2022-10-11T12:51:36.654Z,14.74
2022-10-11T12:54:36.963Z,14.87
2022-10-11T12:57:28.455Z,14.91
2022-10-11T13:00:08.211Z,14.97
2022-10-11T13:02:42.595Z,14.98
2022-10-11T13:05:23.530Z,14.91
2022-10-11T13:07:52.866Z,14.98
2022-10-11T13:10:26.090Z,15.07
2022-10-11T13:12:55.172Z,15.17
2022-10-11T13:15:24.365Z,15.16
2022-10-11T13:17:54.172Z,15.23
2022-10-11T13:20:25.641Z,15.33
2022-10-11T13:22:55.582Z,15.37
2022-10-11T13:25:27.745Z,15.34
2022-10-11T13:27:59.377Z,15.25
2022-10-11T13:30:30.637Z,15.17
2022-10-11T13:32:59.714Z,15.04
2022-10-11T13:35:32.630Z,14.92
2022-10-11T13:38:00.956Z,14.92
2022-10-11T13:40:31.224Z,14.93
2022-10-11T13:42:59.740Z,14.92
2022-10-11T13:45:30.524Z,14.92
2022-10-11T13:47:58.687Z,14.88
2022-10-11T13:50:31.870Z,14.86
2022-10-11T13:53:02.245Z,14.91
2022-10-11T13:55:34.650Z,14.89
2022-10-11T13:58:04.261Z,14.89
2022-10-11T14:00:35.870Z,14.88
2022-10-11T14:03:06.852Z,14.77
2022-10-11T14:05:41.186Z,14.62
2022-10-11T14:08:22.885Z,14.49
2022-10-11T14:10:57.187Z,14.41
2022-10-11T14:13:31.678Z,14.32
2022-10-11T14:16:02.870Z,14.24
2022-10-11T14:18:41.324Z,14.17
2022-10-11T14:21:25.538Z,14.04
2022-10-11T14:23:54.851Z,13.94
2022-10-11T14:26:25.282Z,13.88
2022-10-11T14:28:58.982Z,13.77
2022-10-11T14:31:31.001Z,13.73
2022-10-11T14:33:59.682Z,13.68
2022-10-11T14:36:27.878Z,13.67
2022-10-11T14:38:55.764Z,13.62
2022-10-11T14:41:25.193Z,13.58
2022-10-11T14:43:56.283Z,13.54
2022-10-11T14:46:26.218Z,13.56
2022-10-11T14:48:56.019Z,13.53
2022-10-11T14:51:28.620Z,13.53
2022-10-11T14:53:56.610Z,13.50
2022-10-11T14:56:25.750Z,13.46
2022-10-11T14:58:53.559Z,13.40
2022-10-11T15:01:21.515Z,13.33
2022-10-11T15:03:49.356Z,13.23
2022-10-11T15:06:20.455Z,13.15
2022-10-11T15:08:48.799Z,13.09
2022-10-11T15:11:17.921Z,13.06
2022-10-11T15:13:47.674Z,13.02
2022-10-11T15:16:42.264Z,12.96
2022-10-11T15:19:14.956Z,12.90
2022-10-11T15:21:42.959Z,12.87
2022-10-11T15:24:10.786Z,12.80
2022-10-11T15:26:38.634Z,12.77
2022-10-11T15:29:11.212Z,12.71
2022-10-11T15:31:39.379Z,12.63
2022-10-11T15:34:07.533Z,12.58
2022-10-11T15:36:35.396Z,12.50
2022-10-11T15:39:03.275Z,12.45
2022-10-11T15:41:31.151Z,12.43
2022-10-11T15:43:58.932Z,12.40
2022-10-11T15:46:28.200Z,12.37
2022-10-11T15:48:55.992Z,12.33
2022-10-11T15:51:23.965Z,12.25
2022-10-11T15:53:51.763Z,12.17
2022-10-11T15:56:19.719Z,12.10
2022-10-11T15:58:48.091Z,12.02
2022-10-11T16:01:18.660Z,11.92
2022-10-11T16:03:49.816Z,11.82
2022-10-11T16:06:17.701Z,11.72
2022-10-11T16:08:45.670Z,11.60
2022-10-11T16:11:13.800Z,11.49
2022-10-11T16:13:41.843Z,11.40
2022-10-11T16:16:10.928Z,11.32
2022-10-11T16:18:38.958Z,11.23
2022-10-11T16:21:10.680Z,11.14
2022-10-11T16:23:39.243Z,11.05
2022-10-11T16:26:09.402Z,10.97
2022-10-11T16:28:38.342Z,10.88
2022-10-11T16:31:09.898Z,10.81
2022-10-11T16:33:48.016Z,10.70
2022-10-11T16:36:40.516Z,10.58
2022-10-11T16:39:11.991Z,10.45
2022-10-11T16:41:40.082Z,10.34
2022-10-11T16:44:08.501Z,10.26
2022-10-11T16:46:36.332Z,10.18
2022-10-11T16:49:05.034Z,10.11
2022-10-11T16:51:34.594Z,10.04
2022-10-11T16:54:02.561Z,9.95
2022-10-11T16:56:30.341Z,9.87
2022-10-11T16:58:58.167Z,9.77
2022-10-11T17:01:26.790Z,9.69
2022-10-11T17:03:55.651Z,9.59
2022-10-11T17:06:23.961Z,9.48
2022-10-11T17:08:53.464Z,9.40
2022-10-11T17:11:22.624Z,9.35
2022-10-11T17:13:53.219Z,9.31
2022-10-11T17:16:21.978Z,9.25
2022-10-11T17:18:50.106Z,9.21
2022-10-11T17:21:20.102Z,9.14
2022-10-11T17:23:49.134Z,9.08
2022-10-11T17:26:20.332Z,9.03
2022-10-11T17:28:48.758Z,8.97
2022-10-11T17:31:16.755Z,8.91
2022-10-11T17:33:44.697Z,8.85
2022-10-11T17:36:23.744Z,8.79
2022-10-11T17:38:52.760Z,8.74
2022-10-11T17:41:22.168Z,8.68
2022-10-11T17:43:49.909Z,8.61
2022-10-11T17:46:18.821Z,8.53
2022-10-11T17:48:46.700Z,8.50
2022-10-11T17:51:17.128Z,8.45
2022-10-11T17:53:45.323Z,8.40
2022-10-11T17:56:15.492Z,8.36
2022-10-11T17:58:45.217Z,8.29
2022-10-11T18:01:15.646Z,8.23
2022-10-11T18:03:44.386Z,8.18
2022-10-11T18:06:14.944Z,8.14
2022-10-11T18:08:43.176Z,8.09
2022-10-11T18:11:12.846Z,8.02
2022-10-11T18:13:43.195Z,7.97
2022-10-11T18:16:13.570Z,7.90
2022-10-11T18:18:43.764Z,7.84
2022-10-11T18:21:12.157Z,7.78
2022-10-11T18:23:40.276Z,7.74
2022-10-11T18:26:13.097Z,7.68
2022-10-11T18:28:41.798Z,7.63
2022-10-11T18:31:14.142Z,7.58
2022-10-11T18:33:43.109Z,7.55
2022-10-11T18:36:13.393Z,7.48
2022-10-11T18:38:46.572Z,7.43
2022-10-11T18:41:16.649Z,7.37
2022-10-11T18:43:50.865Z,7.33
2022-10-11T18:46:21.670Z,7.28
2022-10-11T18:48:54.541Z,7.22
2022-10-11T18:51:23.965Z,7.17
2022-10-11T18:53:53.006Z,7.10
2022-10-11T18:56:24.302Z,7.03
2022-10-11T18:58:54.664Z,6.93
2022-10-11T19:01:25.932Z,6.86
2022-10-11T19:03:56.533Z,6.78
2022-10-11T19:06:27.358Z,6.72
2022-10-11T19:08:57.449Z,6.67
2022-10-11T19:11:25.578Z,6.59
2022-10-11T19:13:57.364Z,6.56
2022-10-11T19:16:29.411Z,6.51
2022-10-11T19:18:58.483Z,6.47
2022-10-11T19:21:26.601Z,6.44
2022-10-11T19:23:56.626Z,6.43
2022-10-11T19:26:28.879Z,6.40
2022-10-11T19:28:59.069Z,6.36
2022-10-11T19:31:29.352Z,6.33
2022-10-11T19:33:58.149Z,6.26
2022-10-11T19:36:26.652Z,6.19
2022-10-11T19:38:56.689Z,6.15
2022-10-11T19:41:26.376Z,6.12
2022-10-11T19:43:55.050Z,6.06
2022-10-11T19:46:44.503Z,6.00
2022-10-11T19:49:15.753Z,5.96
2022-10-11T19:51:43.884Z,5.92
2022-10-11T19:54:14.681Z,5.87
2022-10-11T19:56:43.640Z,5.83
2022-10-11T19:59:12.902Z,5.78
2022-10-11T20:01:41.151Z,5.74
2022-10-11T20:04:27.538Z,5.72
2022-10-11T20:07:04.839Z,5.69
2022-10-11T20:09:32.701Z,5.68
2022-10-11T20:12:00.603Z,5.65
2022-10-11T20:14:28.386Z,5.63
2022-10-11T20:16:56.236Z,5.58
2022-10-11T20:19:30.372Z,5.53
2022-10-11T20:21:58.845Z,5.50
2022-10-11T20:24:32.530Z,5.45
2022-10-11T20:27:01.489Z,5.43
2022-10-11T20:29:29.364Z,5.37
2022-10-11T20:31:58.851Z,5.33
2022-10-11T20:34:27.581Z,5.29
2022-10-11T20:36:55.448Z,5.25
2022-10-11T20:39:23.620Z,5.21
2022-10-11T20:41:52.825Z,5.17
2022-10-11T20:44:20.634Z,5.15
2022-10-11T20:46:48.506Z,5.11
2022-10-11T20:49:16.407Z,5.09
2022-10-11T20:51:44.364Z,5.06
2022-10-11T20:54:12.551Z,5.04
2022-10-11T20:56:40.668Z,5.02
2022-10-11T20:59:11.408Z,4.98
2022-10-11T21:01:41.326Z,4.97
2022-10-11T21:04:17.319Z,4.93
2022-10-11T21:06:45.276Z,4.91
2022-10-11T21:09:16.416Z,4.87
2022-10-11T21:11:45.365Z,4.85
2022-10-11T21:14:14.623Z,4.83
2022-10-11T21:16:42.554Z,4.80
2022-10-11T21:19:13.825Z,4.77
2022-10-11T21:21:41.977Z,4.73
2022-10-11T21:24:10.055Z,4.69
2022-10-11T21:26:38.051Z,4.67
2022-10-11T21:29:05.876Z,4.63
2022-10-11T21:32:03.859Z,4.57
2022-10-11T21:34:31.850Z,4.54
2022-10-11T21:37:00.549Z,4.50
2022-10-11T21:39:28.348Z,4.46
2022-10-11T21:41:56.256Z,4.42
2022-10-11T21:44:24.125Z,4.37
2022-10-11T21:47:06.604Z,4.32
2022-10-11T21:49:37.510Z,4.30
2022-10-11T21:52:05.877Z,4.28
2022-10-11T21:54:33.658Z,4.26
2022-10-11T21:57:01.761Z,4.25
2022-10-11T21:59:29.603Z,4.22
2022-10-11T22:02:01.674Z,4.18
2022-10-11T22:06:37.104Z,4.12
2022-10-11T22:09:05.748Z,4.08
2022-10-11T22:11:33.864Z,4.05
2022-10-11T22:14:02.091Z,4.02
2022-10-11T22:16:29.855Z,3.99
2022-10-11T22:18:57.723Z,3.96
2022-10-11T22:21:25.553Z,3.92
2022-10-11T22:23:55.983Z,3.90
2022-10-11T22:26:25.897Z,3.88
2022-10-11T22:28:54.189Z,3.82
2022-10-11T22:31:22.649Z,3.79
2022-10-11T22:33:53.828Z,3.76
2022-10-11T22:36:24.157Z,3.72
2022-10-11T22:38:54.669Z,3.69
2022-10-11T22:41:22.630Z,3.64
2022-10-11T22:43:50.775Z,3.63
2022-10-11T22:46:18.901Z,3.61
2022-10-11T22:48:46.790Z,3.58
2022-10-11T22:51:14.673Z,3.56
2022-10-11T22:53:42.757Z,3.53
2022-10-11T22:56:12.035Z,3.50
2022-10-11T22:58:39.871Z,3.48
2022-10-11T23:01:09.506Z,3.45
2022-10-11T23:03:37.778Z,3.43
2022-10-11T23:06:05.896Z,3.40
2022-10-11T23:08:33.732Z,3.39
2022-10-11T23:11:04.386Z,3.38
2022-10-11T23:13:33.864Z,3.36
2022-10-11T23:16:06.995Z,3.37
2022-10-11T23:18:35.117Z,3.35
2022-10-11T23:21:03.127Z,3.31
2022-10-11T23:23:31.175Z,3.29
2022-10-11T23:26:04.051Z,3.24
2022-10-11T23:28:33.270Z,3.21
2022-10-11T23:31:01.420Z,3.20
2022-10-11T23:33:29.862Z,3.19
2022-10-11T23:35:58.301Z,3.16
2022-10-11T23:38:26.071Z,3.14
2022-10-11T23:40:53.871Z,3.13
2022-10-11T23:43:21.724Z,3.10
2022-10-11T23:45:51.219Z,3.08
2022-10-11T23:48:18.993Z,3.05
2022-10-11T23:50:46.992Z,3.04
2022-10-11T23:53:14.886Z,3.01
2022-10-11T23:55:43.383Z,2.98
2022-10-11T23:58:11.197Z,2.95
